createdAt,value
2022-08-05T00:00:18.493Z,16.40
2022-08-05T00:02:51.358Z,16.40
2022-08-05T00:06:03.301Z,16.50
2022-08-05T00:08:19.978Z,16.60
2022-08-05T00:11:00.783Z,16.60
2022-08-05T00:13:39.207Z,16.50
2022-08-05T00:16:12.281Z,16.50
2022-08-05T00:18:44.289Z,16.40
2022-08-05T00:21:14.392Z,16.30
2022-08-05T00:23:46.028Z,16.30
2022-08-05T00:26:22.010Z,16.20
2022-08-05T00:28:50.827Z,16.10
2022-08-05T00:31:53.274Z,16.10
2022-08-05T00:34:56.203Z,16.10
2022-08-05T00:37:20.097Z,16.00
2022-08-05T00:39:57.524Z,16.00
2022-08-05T00:42:33.549Z,16.00
2022-08-05T00:45:01.815Z,16.00
2022-08-05T00:47:53.020Z,15.90
2022-08-05T00:50:18.653Z,15.90
2022-08-05T00:52:49.149Z,15.90
2022-08-05T00:55:16.759Z,15.90
2022-08-05T00:57:58.710Z,16.00
2022-08-05T01:00:28.644Z,16.10
2022-08-05T01:02:57.725Z,16.10
2022-08-05T01:05:27.860Z,16.10
2022-08-05T01:08:40.804Z,16.20
2022-08-05T01:10:55.282Z,16.20
2022-08-05T01:13:57.390Z,16.20
2022-08-05T01:16:38.441Z,16.30
2022-08-05T01:19:16.126Z,16.30
2022-08-05T01:22:10.866Z,16.40
2022-08-05T01:25:02.865Z,16.40
2022-08-05T01:28:05.889Z,16.40
2022-08-05T01:30:39.783Z,16.50
2022-08-05T01:33:21.713Z,16.50
2022-08-05T01:35:57.622Z,16.50
2022-08-05T01:38:30.083Z,16.50
2022-08-05T01:40:59.755Z,16.60
2022-08-05T01:43:31.017Z,16.50
2022-08-05T01:46:07.304Z,16.40
2022-08-05T01:48:49.851Z,16.30
2022-08-05T01:51:18.921Z,16.30
2022-08-05T01:53:56.898Z,16.20
2022-08-05T01:58:09.490Z,16.20
2022-08-05T01:59:23.013Z,16.30
2022-08-05T02:01:54.766Z,16.40
2022-08-05T02:04:26.490Z,16.40
2022-08-05T02:06:54.500Z,16.50
2022-08-05T02:09:23.489Z,16.50
2022-08-05T02:12:10.225Z,16.40
2022-08-05T02:14:44.773Z,16.40
2022-08-05T02:18:27.608Z,16.50
2022-08-05T02:20:20.704Z,16.50
2022-08-05T02:22:56.452Z,16.60
2022-08-05T02:25:33.426Z,16.60
2022-08-05T02:28:08.931Z,16.50
2022-08-05T02:30:51.520Z,16.30
2022-08-05T02:33:24.640Z,16.20
2022-08-05T02:36:13.400Z,16.10
2022-08-05T02:38:53.348Z,16.00
2022-08-05T02:41:23.576Z,15.90
2022-08-05T02:44:02.291Z,15.90
2022-08-05T02:46:36.044Z,15.90
2022-08-05T02:49:22.420Z,15.90
2022-08-05T02:52:02.906Z,15.80
2022-08-05T02:54:35.949Z,15.80
2022-08-05T02:58:11.774Z,15.70
2022-08-05T03:00:01.783Z,15.60
2022-08-05T03:02:33.437Z,15.60
2022-08-05T03:05:01.915Z,15.50
2022-08-05T03:08:01.284Z,15.40
2022-08-05T03:10:22.112Z,15.40
2022-08-05T03:12:54.241Z,15.30
2022-08-05T03:15:23.704Z,15.30
2022-08-05T03:17:58.096Z,15.20
2022-08-05T03:20:27.307Z,15.10
2022-08-05T03:22:57.737Z,15.10
2022-08-05T03:26:03.855Z,15.10
2022-08-05T03:28:18.802Z,15.10
2022-08-05T03:30:49.458Z,15.00
2022-08-05T03:33:17.414Z,14.90
2022-08-05T03:35:46.629Z,14.90
2022-08-05T03:38:15.231Z,14.80
2022-08-05T03:40:45.132Z,14.80
2022-08-05T03:44:10.015Z,14.80
2022-08-05T03:46:05.106Z,14.80
2022-08-05T03:48:36.737Z,14.80
2022-08-05T03:52:50.494Z,14.80
2022-08-05T03:55:50.559Z,14.80
2022-08-05T03:57:34.270Z,14.80
2022-08-05T04:00:04.711Z,14.80
2022-08-05T04:02:52.241Z,14.90
2022-08-05T04:05:45.167Z,14.80
2022-08-05T04:08:35.082Z,14.80
2022-08-05T04:11:08.496Z,14.80
2022-08-05T04:13:50.085Z,14.90
2022-08-05T04:16:25.058Z,14.90
2022-08-05T04:19:00.337Z,14.90
2022-08-05T04:22:08.789Z,14.80
2022-08-05T04:24:19.723Z,14.80
2022-08-05T04:26:50.643Z,14.90
2022-08-05T04:29:18.774Z,15.00
2022-08-05T04:31:48.274Z,15.10
2022-08-05T04:34:31.710Z,15.10
2022-08-05T04:37:01.069Z,15.10
2022-08-05T04:39:31.352Z,15.10
2022-08-05T04:42:00.482Z,15.20
2022-08-05T04:44:30.630Z,15.30
2022-08-05T04:46:59.402Z,15.30
2022-08-05T04:49:38.952Z,15.20
2022-08-05T04:52:15.942Z,15.20
2022-08-05T04:54:43.550Z,15.40
2022-08-05T04:57:11.005Z,15.60
2022-08-05T04:59:40.841Z,15.70
2022-08-05T05:02:37.020Z,15.80
2022-08-05T05:05:02.728Z,15.90
2022-08-05T05:07:32.415Z,16.00
2022-08-05T05:10:04.350Z,16.20
2022-08-05T05:12:32.505Z,16.40
2022-08-05T05:15:00.018Z,16.50
2022-08-05T05:17:56.974Z,16.60
2022-08-05T05:20:28.792Z,16.70
2022-08-05T05:22:57.712Z,16.80
2022-08-05T05:25:32.494Z,16.80
2022-08-05T05:28:04.431Z,16.80
2022-08-05T05:30:33.493Z,16.90
2022-08-05T05:33:15.827Z,16.80
2022-08-05T05:35:48.375Z,16.80
2022-08-05T05:38:22.843Z,16.70
2022-08-05T05:40:56.067Z,16.70
2022-08-05T05:43:56.814Z,16.60
2022-08-05T05:46:17.231Z,16.60
2022-08-05T05:48:48.003Z,16.70
2022-08-05T05:51:28.109Z,16.70
2022-08-05T05:53:59.708Z,16.70
2022-08-05T05:56:34.556Z,17.00
2022-08-05T05:59:07.740Z,17.10
2022-08-05T06:01:39.441Z,17.30
2022-08-05T06:04:11.770Z,17.40
2022-08-05T06:06:42.654Z,17.60
2022-08-05T06:09:17.525Z,17.70
2022-08-05T06:11:59.404Z,18.00
2022-08-05T06:14:31.300Z,18.20
2022-08-05T06:16:59.231Z,18.40
2022-08-05T06:19:35.014Z,18.70
2022-08-05T06:22:07.501Z,18.80
2022-08-05T06:24:41.874Z,18.80
2022-08-05T06:28:09.531Z,18.80
2022-08-05T06:30:20.047Z,19.10
2022-08-05T06:32:50.544Z,19.10
2022-08-05T06:35:21.886Z,19.50
2022-08-05T06:38:08.291Z,19.90
2022-08-05T06:40:42.079Z,19.90
2022-08-05T06:43:57.506Z,20.00
2022-08-05T06:46:03.984Z,20.10
2022-08-05T06:48:53.641Z,20.30
2022-08-05T06:51:29.304Z,20.60
2022-08-05T06:54:03.141Z,20.70
2022-08-05T06:56:34.502Z,20.60
2022-08-05T06:59:09.609Z,20.60
2022-08-05T07:01:37.481Z,20.40
2022-08-05T07:04:09.872Z,20.20
2022-08-05T07:06:37.723Z,20.00
2022-08-05T07:09:05.267Z,19.80
2022-08-05T07:11:36.961Z,19.70
2022-08-05T07:14:30.380Z,19.70
2022-08-05T07:17:58.595Z,19.60
2022-08-05T07:20:32.444Z,19.50
2022-08-05T07:22:38.733Z,19.20
2022-08-05T07:25:24.117Z,19.00
2022-08-05T07:28:01.423Z,19.00
2022-08-05T07:30:39.085Z,19.00
2022-08-05T07:33:16.087Z,18.90
2022-08-05T07:36:02.192Z,18.80
2022-08-05T07:38:43.758Z,18.80
2022-08-05T07:42:13.860Z,18.70
2022-08-05T07:44:14.353Z,18.60
2022-08-05T07:46:49.294Z,18.30
2022-08-05T07:49:18.649Z,18.10
2022-08-05T07:51:53.691Z,18.00
2022-08-05T07:54:31.430Z,17.90
2022-08-05T07:57:17.612Z,17.80
2022-08-05T07:59:50.294Z,17.80
2022-08-05T08:02:18.153Z,17.80
2022-08-05T08:04:47.532Z,17.70
2022-08-05T08:07:22.879Z,18.00
2022-08-05T08:09:53.068Z,18.20
2022-08-05T08:12:33.376Z,18.20
2022-08-05T08:15:15.038Z,18.10
2022-08-05T08:17:46.064Z,18.00
2022-08-05T08:20:42.614Z,18.10
2022-08-05T08:23:04.460Z,18.20
2022-08-05T08:26:00.952Z,18.30
2022-08-05T08:28:36.885Z,18.40
2022-08-05T08:31:08.430Z,18.30
2022-08-05T08:33:37.874Z,18.20
2022-08-05T08:36:29.428Z,18.00
2022-08-05T08:38:56.893Z,17.90
2022-08-05T08:41:52.259Z,17.80
2022-08-05T08:45:16.839Z,17.70
2022-08-05T08:47:46.938Z,17.90
2022-08-05T08:50:29.991Z,17.90
2022-08-05T08:52:56.759Z,17.70
2022-08-05T08:55:32.012Z,17.80
2022-08-05T08:58:16.357Z,17.80
2022-08-05T09:00:44.484Z,17.60
2022-08-05T09:03:15.902Z,17.40
2022-08-05T09:06:07.624Z,17.30
2022-08-05T09:08:35.490Z,17.20
2022-08-05T09:11:08.614Z,17.20
2022-08-05T09:14:10.055Z,17.30
2022-08-05T09:16:27.868Z,17.40
2022-08-05T09:18:55.641Z,17.40
2022-08-05T09:22:22.658Z,17.50
2022-08-05T09:24:12.778Z,17.50
2022-08-05T09:26:40.646Z,17.60
2022-08-05T09:29:44.762Z,17.80
2022-08-05T09:32:41.638Z,17.90
2022-08-05T09:35:26.601Z,18.10
2022-08-05T09:38:16.693Z,18.20
2022-08-05T09:41:10.243Z,18.30
2022-08-05T09:43:41.255Z,18.40
2022-08-05T09:46:30.646Z,18.40
2022-08-05T09:49:07.293Z,18.30
2022-08-05T09:51:49.702Z,18.40
2022-08-05T09:54:29.569Z,18.30
2022-08-05T09:57:01.812Z,18.10
2022-08-05T09:59:35.104Z,17.80
2022-08-05T10:02:05.274Z,17.60
2022-08-05T10:04:38.500Z,17.60
2022-08-05T10:07:20.261Z,17.40
2022-08-05T10:10:15.344Z,17.20
2022-08-05T10:12:52.204Z,17.10
2022-08-05T10:15:27.030Z,17.40
2022-08-05T10:18:08.601Z,17.70
2022-08-05T10:20:47.656Z,17.70
2022-08-05T10:23:22.137Z,17.60
2022-08-05T10:26:14.189Z,17.60
2022-08-05T10:28:45.077Z,17.60
2022-08-05T10:32:54.147Z,17.40
2022-08-05T10:34:04.329Z,17.20
2022-08-05T10:36:37.193Z,17.10
2022-08-05T10:39:15.029Z,17.20
2022-08-05T10:42:00.846Z,17.40
2022-08-05T10:44:31.246Z,17.50
2022-08-05T10:46:58.631Z,17.60
2022-08-05T10:49:33.040Z,17.50
2022-08-05T10:52:03.216Z,17.20
2022-08-05T10:55:01.779Z,17.10
2022-08-05T10:57:32.134Z,17.10
2022-08-05T11:00:19.153Z,17.10
2022-08-05T11:03:24.581Z,17.10
2022-08-05T11:06:22.703Z,17.20
2022-08-05T11:09:18.701Z,17.40
2022-08-05T11:11:59.759Z,17.40
2022-08-05T11:15:11.481Z,17.40
2022-08-05T11:17:53.356Z,17.30
2022-08-05T11:20:44.437Z,17.10
2022-08-05T11:24:02.879Z,17.20
2022-08-05T11:26:28.646Z,17.40
2022-08-05T11:29:11.817Z,17.40
2022-08-05T11:31:58.376Z,17.60
2022-08-05T11:34:51.547Z,17.70
2022-08-05T11:38:37.004Z,17.80
2022-08-05T11:41:35.380Z,17.80
2022-08-05T11:44:40.684Z,17.90
2022-08-05T11:47:12.009Z,17.70
2022-08-05T11:49:58.925Z,17.60
2022-08-05T11:52:29.926Z,17.70
2022-08-05T11:55:07.291Z,17.80
2022-08-05T11:58:08.075Z,18.10
2022-08-05T12:00:30.439Z,18.90
2022-08-05T12:02:58.330Z,19.60
2022-08-05T12:05:32.235Z,19.70
2022-08-05T12:08:10.150Z,19.60
2022-08-05T12:10:45.911Z,19.70
2022-08-05T12:13:27.610Z,19.70
2022-08-05T12:16:14.182Z,19.80
2022-08-05T12:18:49.367Z,20.30
2022-08-05T12:21:24.113Z,20.40
2022-08-05T12:24:07.980Z,20.30
2022-08-05T12:26:44.255Z,20.50
2022-08-05T12:29:22.542Z,20.60
2022-08-05T12:32:02.107Z,20.80
2022-08-05T12:34:36.944Z,20.90
2022-08-05T12:37:17.113Z,21.00
2022-08-05T12:39:51.693Z,20.90
2022-08-05T12:42:21.181Z,20.80
2022-08-05T12:44:49.102Z,20.70
2022-08-05T12:47:31.187Z,20.60
2022-08-05T12:50:03.353Z,21.20
2022-08-05T12:52:39.059Z,22.60
2022-08-05T12:55:22.011Z,24.60
2022-08-05T12:58:38.971Z,25.10
2022-08-05T13:02:04.442Z,26.90
2022-08-05T13:03:32.447Z,28.30
2022-08-05T13:06:01.680Z,28.40
2022-08-05T13:08:30.317Z,27.90
2022-08-05T13:11:04.454Z,27.60
2022-08-05T13:14:06.377Z,27.80
2022-08-05T13:16:20.191Z,27.00
2022-08-05T13:18:52.268Z,26.10
2022-08-05T13:21:22.752Z,24.90
2022-08-05T13:23:56.061Z,24.10
2022-08-05T13:26:29.887Z,24.00
2022-08-05T13:28:59.098Z,23.90
2022-08-05T13:32:03.186Z,23.60
2022-08-05T13:34:22.197Z,23.20
2022-08-05T13:36:54.609Z,22.90
2022-08-05T13:40:13.377Z,22.40
2022-08-05T13:42:14.649Z,22.40
2022-08-05T13:44:46.443Z,22.10
2022-08-05T13:47:35.019Z,22.20
2022-08-05T13:50:04.670Z,21.90
2022-08-05T13:52:35.534Z,22.00
2022-08-05T13:55:07.633Z,22.10
2022-08-05T13:57:50.952Z,22.10
2022-08-05T14:00:27.042Z,21.90
2022-08-05T14:02:56.855Z,21.80
2022-08-05T14:05:48.021Z,22.00
2022-08-05T14:08:20.255Z,22.30
2022-08-05T14:10:48.944Z,22.30
2022-08-05T14:13:16.460Z,22.40
2022-08-05T14:16:07.848Z,22.50
2022-08-05T14:18:31.731Z,22.40
2022-08-05T14:21:00.119Z,22.30
2022-08-05T14:23:36.357Z,22.10
2022-08-05T14:26:04.796Z,22.00
2022-08-05T14:28:33.615Z,21.90
2022-08-05T14:31:01.919Z,21.80
2022-08-05T14:33:56.409Z,21.60
2022-08-05T14:36:21.270Z,21.80
2022-08-05T14:38:50.773Z,22.40
2022-08-05T14:41:19.151Z,22.50
2022-08-05T14:44:02.486Z,22.80
2022-08-05T14:46:34.970Z,23.40
2022-08-05T14:49:07.471Z,24.30
2022-08-05T14:51:37.677Z,24.80
2022-08-05T14:54:28.254Z,25.80
2022-08-05T14:56:57.639Z,25.50
2022-08-05T14:59:29.123Z,24.60
2022-08-05T15:01:58.086Z,24.30
2022-08-05T15:04:28.901Z,24.10
2022-08-05T15:06:56.754Z,24.00
2022-08-05T15:09:52.070Z,23.70
2022-08-05T15:12:16.789Z,23.10
2022-08-05T15:14:50.031Z,22.10
2022-08-05T15:17:46.289Z,21.30
2022-08-05T15:20:18.492Z,20.30
2022-08-05T15:22:54.129Z,19.50
2022-08-05T15:25:51.712Z,19.30
2022-08-05T15:28:15.521Z,19.80
2022-08-05T15:30:45.896Z,20.00
2022-08-05T15:33:56.774Z,19.80
2022-08-05T15:36:04.633Z,19.40
2022-08-05T15:38:41.034Z,19.10
2022-08-05T15:41:22.533Z,18.70
2022-08-05T15:43:54.476Z,18.60
2022-08-05T15:46:24.097Z,19.10
2022-08-05T15:49:01.152Z,19.30
2022-08-05T15:52:03.838Z,19.20
2022-08-05T15:54:35.176Z,19.40
2022-08-05T15:57:07.335Z,19.60
2022-08-05T15:59:36.416Z,19.80
2022-08-05T16:02:09.618Z,19.60
2022-08-05T16:04:44.030Z,19.60
2022-08-05T16:07:12.216Z,19.90
2022-08-05T16:09:42.131Z,19.80
2022-08-05T16:12:11.455Z,19.60
2022-08-05T16:14:39.538Z,19.20
2022-08-05T16:17:06.982Z,19.00
2022-08-05T16:20:05.399Z,18.80
2022-08-05T16:22:27.765Z,18.90
2022-08-05T16:25:05.259Z,19.00
2022-08-05T16:28:00.134Z,19.10
2022-08-05T16:30:28.884Z,19.20
2022-08-05T16:32:57.990Z,19.20
2022-08-05T16:35:28.416Z,19.10
2022-08-05T16:38:15.887Z,19.00
2022-08-05T16:40:55.049Z,19.00
2022-08-05T16:43:32.332Z,19.00
2022-08-05T16:46:23.656Z,19.00
2022-08-05T16:48:52.935Z,19.00
2022-08-05T16:51:20.751Z,19.00
2022-08-05T16:54:03.362Z,19.10
2022-08-05T16:56:34.863Z,19.00
2022-08-05T16:59:08.089Z,18.90
2022-08-05T17:01:53.264Z,18.70
2022-08-05T17:04:26.188Z,18.70
2022-08-05T17:06:55.656Z,18.70
2022-08-05T17:09:29.461Z,18.60
2022-08-05T17:11:59.271Z,18.50
2022-08-05T17:14:36.820Z,18.40
2022-08-05T17:17:14.608Z,18.30
2022-08-05T17:19:45.642Z,18.20
2022-08-05T17:22:18.036Z,18.20
2022-08-05T17:24:57.715Z,18.20
2022-08-05T17:27:33.816Z,18.20
2022-08-05T17:30:04.706Z,18.10
2022-08-05T17:32:42.127Z,18.10
2022-08-05T17:35:12.111Z,18.00
2022-08-05T17:37:45.643Z,17.90
2022-08-05T17:40:17.768Z,17.90
2022-08-05T17:42:52.072Z,17.80
2022-08-05T17:45:22.932Z,17.70
2022-08-05T17:47:55.502Z,17.60
2022-08-05T17:50:28.116Z,17.50
2022-08-05T17:52:59.501Z,17.40
2022-08-05T17:55:38.148Z,17.40
2022-08-05T17:58:12.703Z,17.20
2022-08-05T18:00:45.440Z,17.00
2022-08-05T18:03:58.407Z,17.00
2022-08-05T18:06:12.311Z,16.90
2022-08-05T18:08:52.214Z,16.80
2022-08-05T18:11:24.253Z,16.70
2022-08-05T18:14:04.409Z,16.60
2022-08-05T18:16:33.846Z,16.50
2022-08-05T18:19:01.750Z,16.40
2022-08-05T18:22:08.758Z,16.30
2022-08-05T18:24:17.199Z,16.20
2022-08-05T18:26:45.014Z,16.10
2022-08-05T18:29:16.746Z,16.00
2022-08-05T18:31:44.638Z,15.90
2022-08-05T18:34:12.824Z,15.80
2022-08-05T18:36:41.251Z,15.70
2022-08-05T18:39:42.364Z,15.50
2022-08-05T18:42:04.991Z,15.50
2022-08-05T18:44:49.183Z,15.30
2022-08-05T18:47:22.897Z,15.20
2022-08-05T18:50:15.417Z,15.10
2022-08-05T18:52:51.037Z,15.00
2022-08-05T18:55:20.219Z,14.80
2022-08-05T18:57:52.625Z,14.70
2022-08-05T19:00:29.246Z,14.50
2022-08-05T19:03:03.392Z,14.40
2022-08-05T19:06:11.161Z,14.30
2022-08-05T19:08:21.540Z,14.20
2022-08-05T19:10:50.035Z,14.00
2022-08-05T19:13:17.474Z,13.90
2022-08-05T19:15:59.900Z,13.80
2022-08-05T19:18:31.631Z,13.70
2022-08-05T19:20:59.858Z,13.60
2022-08-05T19:24:05.952Z,13.50
2022-08-05T19:26:16.530Z,13.40
2022-08-05T19:28:44.458Z,13.20
2022-08-05T19:31:14.992Z,13.10
2022-08-05T19:33:48.694Z,13.00
2022-08-05T19:36:29.441Z,12.90
2022-08-05T19:39:01.108Z,12.90
2022-08-05T19:41:58.410Z,12.90
2022-08-05T19:44:19.692Z,13.00
2022-08-05T19:46:47.398Z,12.90
2022-08-05T19:49:18.181Z,12.80
2022-08-05T19:52:08.350Z,12.70
2022-08-05T19:54:36.884Z,12.60
2022-08-05T19:57:06.732Z,12.50
2022-08-05T19:59:59.333Z,12.50
2022-08-05T20:02:31.239Z,12.40
2022-08-05T20:04:59.778Z,12.40
2022-08-05T20:07:45.855Z,12.30
2022-08-05T20:10:16.973Z,12.30
2022-08-05T20:12:46.217Z,12.30
2022-08-05T20:15:47.796Z,12.20
2022-08-05T20:18:10.723Z,12.10
2022-08-05T20:20:56.899Z,12.00
2022-08-05T20:23:40.479Z,12.00
2022-08-05T20:26:15.978Z,12.00
2022-08-05T20:28:48.378Z,12.00
2022-08-05T20:31:17.276Z,12.00
2022-08-05T20:33:45.310Z,11.90
2022-08-05T20:36:14.324Z,11.90
2022-08-05T20:38:53.573Z,11.80
2022-08-05T20:41:43.415Z,11.70
2022-08-05T20:44:17.654Z,11.80
2022-08-05T20:46:57.883Z,11.80
2022-08-05T20:49:25.920Z,11.90
2022-08-05T20:51:55.105Z,11.80
2022-08-05T20:54:25.259Z,11.70
2022-08-05T20:56:53.189Z,11.60
2022-08-05T20:59:26.870Z,11.70
2022-08-05T21:01:57.117Z,11.70
2022-08-05T21:04:26.872Z,11.60
2022-08-05T21:06:55.107Z,11.60
2022-08-05T21:09:23.251Z,11.60
2022-08-05T21:12:06.803Z,11.50
2022-08-05T21:14:38.550Z,11.40
2022-08-05T21:17:06.419Z,11.40
2022-08-05T21:19:46.390Z,11.40
2022-08-05T21:22:23.829Z,11.30
2022-08-05T21:24:54.211Z,11.40
2022-08-05T21:27:25.247Z,11.40
2022-08-05T21:29:58.148Z,11.30
2022-08-05T21:32:29.554Z,11.30
2022-08-05T21:35:17.432Z,11.30
2022-08-05T21:37:47.235Z,11.20
2022-08-05T21:40:22.104Z,11.20
2022-08-05T21:42:52.883Z,11.20
2022-08-05T21:45:24.600Z,11.10
2022-08-05T21:48:09.586Z,11.20
2022-08-05T21:50:37.372Z,11.20
2022-08-05T21:53:16.282Z,11.10
2022-08-05T21:56:04.608Z,11.00
2022-08-05T21:58:33.368Z,11.00
2022-08-05T22:01:00.871Z,11.10
2022-08-05T22:03:51.923Z,11.00
2022-08-05T22:06:22.595Z,11.00
2022-08-05T22:09:00.919Z,11.00
2022-08-05T22:11:35.145Z,11.00
2022-08-05T22:14:19.871Z,11.10
2022-08-05T22:16:55.910Z,10.90
2022-08-05T22:20:00.768Z,10.90
2022-08-05T22:22:12.659Z,10.90
2022-08-05T22:25:01.784Z,10.90
2022-08-05T22:28:08.609Z,10.90
2022-08-05T22:30:34.889Z,10.80
2022-08-05T22:33:15.547Z,10.70
2022-08-05T22:35:48.617Z,10.80
2022-08-05T22:38:18.885Z,10.80
2022-08-05T22:40:50.051Z,10.70
2022-08-05T22:43:36.346Z,10.70
2022-08-05T22:46:13.200Z,10.70
2022-08-05T22:48:48.476Z,10.70
2022-08-05T22:51:23.226Z,10.70
2022-08-05T22:54:04.259Z,10.70
2022-08-05T22:56:31.941Z,10.60
2022-08-05T22:59:04.691Z,10.70
2022-08-05T23:01:50.797Z,10.80
2022-08-05T23:04:33.813Z,10.70
2022-08-05T23:07:01.536Z,10.70
2022-08-05T23:09:52.586Z,10.70
2022-08-05T23:12:17.998Z,10.60
2022-08-05T23:14:45.461Z,10.60
2022-08-05T23:17:35.005Z,10.60
2022-08-05T23:20:17.536Z,10.50
2022-08-05T23:22:47.182Z,10.50
2022-08-05T23:25:54.924Z,10.40
2022-08-05T23:28:06.922Z,10.50
2022-08-05T23:30:40.314Z,10.40
2022-08-05T23:33:19.070Z,10.40
2022-08-05T23:35:55.859Z,10.40
2022-08-05T23:38:26.013Z,10.50
2022-08-05T23:40:54.273Z,10.60
2022-08-05T23:43:25.537Z,10.60
2022-08-05T23:46:19.936Z,10.50
2022-08-05T23:48:59.894Z,10.50
2022-08-05T23:51:52.555Z,10.50
2022-08-05T23:54:29.893Z,10.40
2022-08-05T23:57:03.964Z,10.40
